Time;durP1;ratioP1;P1;durP2;ratioP2;P2;SDS_P1;SDS_P2;PMS_P1;PMS_P2;Temp;Humidity;BMP_temperature;BMP_pressure;BME280_temperature;BME280_humidity;BME280_pressure;Samples;Min_cycle;Max_cycle;Signal;HPM_P1;HPM_P2
2024/03/25 00:00:13;;;;;;;4.88;1.90;;;5.60;99.90;;;;;;4977785;28;20491;-60
2024/03/25 00:02:39;;;;;;;6.57;1.60;;;5.60;99.90;;;;;;4981998;28;20055;-62
2024/03/25 00:05:10;;;;;;;4.57;1.77;;;5.50;99.90;;;;;;4981297;28;20049;-62
2024/03/25 00:07:39;;;;;;;3.75;1.90;;;5.50;99.90;;;;;;4980601;28;20483;-62
2024/03/25 00:10:08;;;;;;;3.50;2.17;;;5.50;99.90;;;;;;4983682;28;20058;-61
2024/03/25 00:12:36;;;;;;;4.13;1.77;;;5.40;99.90;;;;;;4977722;28;20054;-60
2024/03/25 00:15:03;;;;;;;6.25;1.90;;;5.40;99.90;;;;;;4972588;28;20051;-60
2024/03/25 00:17:28;;;;;;;6.82;2.00;;;5.40;99.90;;;;;;4977662;28;20066;-61
2024/03/25 00:19:54;;;;;;;5.20;2.03;;;5.30;99.90;;;;;;4979174;28;20050;-62
2024/03/25 00:22:21;;;;;;;4.88;2.13;;;5.30;99.90;;;;;;4985275;28;20066;-62
2024/03/25 00:24:47;;;;;;;5.55;1.83;;;5.20;99.90;;;;;;4978599;28;20112;-61
2024/03/25 00:27:16;;;;;;;4.78;2.20;;;5.20;99.90;;;;;;4969377;28;20054;-64
2024/03/25 00:29:42;;;;;;;4.75;2.08;;;5.20;99.90;;;;;;4973477;28;20538;-62
2024/03/25 00:32:08;;;;;;;5.50;2.25;;;5.10;99.90;;;;;;4962797;28;20049;-62
2024/03/25 00:34:34;;;;;;;5.45;2.45;;;5.10;99.90;;;;;;4982169;28;20053;-62
2024/03/25 00:37:01;;;;;;;4.97;1.70;;;5.10;99.90;;;;;;4983007;28;20050;-62
2024/03/25 00:39:27;;;;;;;3.05;1.67;;;5.10;99.90;;;;;;4978386;28;20050;-62
2024/03/25 00:41:54;;;;;;;5.57;1.95;;;5.10;99.90;;;;;;4978634;28;20053;-62
2024/03/25 00:44:19;;;;;;;3.25;1.88;;;5.10;99.90;;;;;;4978883;28;20061;-62
2024/03/25 00:46:46;;;;;;;6.80;2.28;;;5.10;99.90;;;;;;4976060;28;20057;-62
2024/03/25 00:49:12;;;;;;;4.82;1.95;;;5.10;99.90;;;;;;4977889;28;20462;-62
2024/03/25 00:51:38;;;;;;;5.18;1.70;;;5.20;99.90;;;;;;4980580;28;20046;-62
2024/03/25 00:54:04;;;;;;;4.90;1.63;;;5.30;99.90;;;;;;4983000;28;20403;-60
2024/03/25 00:56:31;;;;;;;2.50;1.60;;;5.50;99.90;;;;;;4981997;28;20059;-62
2024/03/25 00:59:02;;;;;;;3.83;2.10;;;5.50;99.90;;;;;;4978598;28;20188;-62
2024/03/25 01:01:28;;;;;;;3.95;1.73;;;5.60;99.90;;;;;;4974581;28;20392;-62
2024/03/25 01:03:54;;;;;;;3.63;1.65;;;5.70;99.90;;;;;;4983395;28;20053;-61
2024/03/25 01:06:20;;;;;;;4.28;2.25;;;5.80;99.90;;;;;;4979059;28;20146;-66
2024/03/25 01:08:45;;;;;;;4.10;1.55;;;5.90;99.90;;;;;;4974294;28;20046;-62
2024/03/25 01:11:11;;;;;;;3.60;1.83;;;5.90;99.90;;;;;;4991649;28;20509;-61
2024/03/25 01:13:37;;;;;;;3.95;1.80;;;5.90;99.90;;;;;;4976735;28;20691;-62
2024/03/25 01:16:03;;;;;;;4.28;1.75;;;6.00;99.90;;;;;;4976544;28;20038;-62
2024/03/25 01:18:29;;;;;;;4.65;1.58;;;6.00;99.90;;;;;;4974026;28;20056;-62
2024/03/25 01:20:54;;;;;;;4.90;1.75;;;6.00;99.90;;;;;;4976589;28;20085;-62
2024/03/25 01:23:20;;;;;;;5.78;1.92;;;6.00;99.90;;;;;;4979180;28;20050;-64
2024/03/25 01:25:46;;;;;;;2.92;1.80;;;6.10;99.90;;;;;;4976464;28;20068;-63
2024/03/25 01:28:12;;;;;;;3.50;1.70;;;6.10;99.90;;;;;;4975532;28;20078;-65
2024/03/25 01:30:39;;;;;;;3.67;1.70;;;6.00;99.90;;;;;;4976830;28;20050;-64
2024/03/25 01:33:05;;;;;;;4.72;1.73;;;6.00;99.90;;;;;;4980981;28;20454;-64
2024/03/25 01:35:31;;;;;;;4.07;1.80;;;6.00;99.90;;;;;;4978899;28;20398;-64
2024/03/25 01:37:57;;;;;;;3.28;1.40;;;6.00;99.90;;;;;;4979116;28;20121;-64
2024/03/25 01:40:23;;;;;;;3.45;1.60;;;6.10;99.90;;;;;;4977529;28;20523;-64
2024/03/25 01:42:56;;;;;;;3.55;1.80;;;6.10;99.90;;;;;;4974630;28;20076;-64
2024/03/25 01:45:22;;;;;;;4.00;1.70;;;6.00;99.90;;;;;;4975885;28;20105;-64
2024/03/25 01:47:48;;;;;;;2.17;1.40;;;6.10;99.90;;;;;;4977508;28;20116;-64
2024/03/25 01:50:14;;;;;;;3.63;1.67;;;6.10;99.90;;;;;;4981222;28;20042;-64
2024/03/25 01:52:40;;;;;;;4.97;2.80;;;6.10;99.90;;;;;;4983044;28;20050;-64
2024/03/25 01:55:12;;;;;;;6.18;1.70;;;6.20;99.90;;;;;;4975778;28;20065;-64
2024/03/25 01:57:38;;;;;;;3.72;1.77;;;6.20;99.90;;;;;;4970433;28;20047;-64
2024/03/25 02:00:06;;;;;;;4.13;1.42;;;6.20;99.90;;;;;;4981642;28;20059;-62
2024/03/25 02:02:34;;;;;;;5.10;2.47;;;6.20;99.90;;;;;;4965329;28;20518;-62
2024/03/25 02:05:02;;;;;;;3.70;1.90;;;6.20;99.90;;;;;;4979013;28;20058;-62
2024/03/25 02:07:29;;;;;;;3.22;1.90;;;6.20;99.90;;;;;;4978870;28;20432;-62
2024/03/25 02:09:56;;;;;;;2.45;1.50;;;6.20;99.90;;;;;;4994629;28;20116;-62
2024/03/25 02:12:22;;;;;;;3.25;2.03;;;6.20;99.90;;;;;;4971764;28;20051;-62
2024/03/25 02:14:48;;;;;;;1.55;1.45;;;6.20;99.90;;;;;;4976828;28;20054;-62
2024/03/25 02:17:13;;;;;;;4.20;2.13;;;6.20;99.90;;;;;;4980550;28;20057;-62
2024/03/25 02:19:41;;;;;;;5.00;1.77;;;6.20;99.90;;;;;;4979701;28;20407;-62
2024/03/25 02:22:07;;;;;;;4.50;2.05;;;6.10;99.90;;;;;;4972060;28;20058;-62
2024/03/25 02:24:34;;;;;;;2.25;1.58;;;6.10;99.90;;;;;;4978476;28;20054;-64
2024/03/25 02:26:59;;;;;;;5.63;1.70;;;6.10;99.90;;;;;;4972170;28;20054;-62
2024/03/25 02:29:36;;;;;;;5.45;2.22;;;6.00;99.90;;;;;;4973887;28;20591;-62
2024/03/25 02:32:02;;;;;;;3.33;1.80;;;5.90;99.90;;;;;;4974988;28;20050;-62
2024/03/25 02:34:27;;;;;;;3.10;1.90;;;5.90;99.90;;;;;;4967378;28;20061;-62
2024/03/25 02:36:53;;;;;;;3.33;1.90;;;5.80;99.90;;;;;;4974128;28;20479;-62
2024/03/25 02:39:20;;;;;;;6.65;2.20;;;5.80;99.90;;;;;;4975873;28;20066;-64
2024/03/25 02:41:46;;;;;;;5.43;2.20;;;5.80;99.90;;;;;;4981805;28;20108;-64
2024/03/25 02:44:12;;;;;;;3.10;1.83;;;5.80;99.90;;;;;;4975709;28;20097;-64
2024/03/25 02:46:40;;;;;;;5.13;1.98;;;5.70;99.90;;;;;;4980751;28;20085;-64
2024/03/25 02:49:06;;;;;;;4.22;2.10;;;5.70;99.90;;;;;;4972276;28;21363;-64
2024/03/25 02:51:31;;;;;;;5.05;1.95;;;5.60;99.90;;;;;;4972678;28;20051;-62
2024/03/25 02:53:57;;;;;;;4.20;1.85;;;5.60;99.90;;;;;;4975447;28;20057;-62
2024/03/25 02:56:23;;;;;;;3.58;1.98;;;5.50;99.90;;;;;;4975150;28;20043;-62
2024/03/25 02:58:49;;;;;;;3.47;1.80;;;5.40;99.90;;;;;;4966806;28;20050;-62
2024/03/25 03:01:16;;;;;;;5.18;1.95;;;5.30;99.90;;;;;;4979080;28;20086;-63
2024/03/25 03:03:42;;;;;;;4.32;2.03;;;5.20;99.90;;;;;;4976228;28;20055;-62
2024/03/25 03:06:08;;;;;;;6.75;2.20;;;5.10;99.90;;;;;;4974217;28;20497;-62
2024/03/25 03:08:34;;;;;;;2.95;2.00;;;5.00;99.90;;;;;;4976013;28;20077;-62
2024/03/25 03:11:00;;;;;;;3.33;2.10;;;5.00;99.90;;;;;;4975306;28;20055;-62
2024/03/25 03:13:25;;;;;;;6.32;1.83;;;5.00;99.90;;;;;;4975875;28;20097;-62
2024/03/25 03:15:51;;;;;;;4.30;1.85;;;4.90;99.90;;;;;;4961894;28;20127;-61
2024/03/25 03:18:17;;;;;;;5.82;2.00;;;4.90;99.90;;;;;;4977185;28;20053;-62
2024/03/25 03:20:42;;;;;;;5.78;1.80;;;4.90;99.90;;;;;;4980668;28;20487;-62
2024/03/25 03:23:08;;;;;;;5.80;2.00;;;4.90;99.90;;;;;;4975406;28;20058;-62
2024/03/25 03:25:35;;;;;;;3.60;2.10;;;4.80;99.90;;;;;;4976304;28;20089;-60
2024/03/25 03:28:00;;;;;;;5.63;1.95;;;4.70;99.90;;;;;;4978253;28;20062;-62
2024/03/25 03:30:26;;;;;;;8.43;2.10;;;4.70;99.90;;;;;;4978971;28;21022;-62
2024/03/25 03:32:52;;;;;;;3.42;2.13;;;4.60;99.90;;;;;;4980475;28;20161;-62
2024/03/25 03:35:17;;;;;;;5.45;2.33;;;4.50;99.90;;;;;;4980113;28;20050;-62
2024/03/25 03:37:43;;;;;;;6.30;2.08;;;4.40;99.90;;;;;;4981308;28;20054;-62
2024/03/25 03:40:11;;;;;;;5.75;1.95;;;4.30;99.90;;;;;;4979704;28;20407;-62
2024/03/25 03:42:36;;;;;;;7.25;2.15;;;4.30;99.90;;;;;;4978565;28;20050;-62
2024/03/25 03:45:03;;;;;;;3.20;1.90;;;4.20;99.90;;;;;;4977517;28;20191;-64
2024/03/25 03:47:28;;;;;;;2.92;2.00;;;4.10;99.90;;;;;;4979795;28;20462;-64
2024/03/25 03:49:54;;;;;;;4.35;2.15;;;4.10;99.90;;;;;;4976050;28;20045;-62
2024/03/25 03:52:20;;;;;;;4.38;2.00;;;4.10;99.90;;;;;;4979113;28;20053;-62
2024/03/25 03:54:46;;;;;;;2.83;2.00;;;4.10;99.90;;;;;;4973761;28;20050;-62
2024/03/25 03:57:11;;;;;;;6.70;2.30;;;4.10;99.90;;;;;;4959665;28;20045;-62
2024/03/25 03:59:37;;;;;;;4.97;1.65;;;4.10;99.90;;;;;;4977217;28;20058;-62
2024/03/25 04:02:03;;;;;;;6.13;2.70;;;4.10;99.90;;;;;;4975463;28;20059;-62
2024/03/25 04:04:29;;;;;;;3.30;1.88;;;4.10;99.90;;;;;;4976736;28;20055;-63
2024/03/25 04:06:55;;;;;;;6.75;2.17;;;4.00;99.90;;;;;;4995642;28;20061;-62
2024/03/25 04:09:20;;;;;;;6.40;2.30;;;4.00;99.90;;;;;;4973757;28;20515;-62
2024/03/25 04:11:46;;;;;;;3.10;1.90;;;4.00;99.90;;;;;;4975265;28;20137;-62
2024/03/25 04:14:12;;;;;;;3.47;2.13;;;3.90;99.90;;;;;;4978373;28;20759;-62
2024/03/25 04:16:38;;;;;;;4.07;1.98;;;3.90;99.90;;;;;;4977640;28;20142;-62
2024/03/25 04:19:03;;;;;;;6.40;2.05;;;3.80;99.90;;;;;;4976875;28;20196;-62
2024/03/25 04:21:29;;;;;;;4.50;2.10;;;3.80;99.90;;;;;;4973076;28;20062;-63
2024/03/25 04:23:55;;;;;;;3.63;2.25;;;3.80;99.90;;;;;;4974299;28;20537;-61
2024/03/25 04:26:21;;;;;;;4.20;1.83;;;3.70;99.90;;;;;;4980577;28;20054;-62
2024/03/25 04:28:47;;;;;;;4.30;1.95;;;3.70;99.90;;;;;;4981798;28;20042;-62
2024/03/25 04:31:13;;;;;;;6.57;2.70;;;3.60;99.90;;;;;;4979106;28;20545;-62
2024/03/25 04:33:38;;;;;;;4.15;2.20;;;3.50;99.90;;;;;;4964872;28;20096;-64
2024/03/25 04:36:04;;;;;;;6.07;2.20;;;3.50;99.90;;;;;;4956638;28;20054;-64
2024/03/25 04:38:30;;;;;;;5.82;2.10;;;3.40;99.90;;;;;;4976754;28;20054;-62
2024/03/25 04:40:56;;;;;;;7.65;2.15;;;3.40;99.90;;;;;;4977238;28;20053;-62
2024/03/25 04:43:22;;;;;;;5.00;2.28;;;3.30;99.90;;;;;;4975631;28;20050;-62
2024/03/25 04:45:47;;;;;;;5.88;2.70;;;3.30;99.90;;;;;;4972709;28;20475;-62
2024/03/25 04:48:13;;;;;;;4.07;2.25;;;3.30;99.90;;;;;;4955162;28;20755;-62
2024/03/25 04:50:39;;;;;;;5.60;2.17;;;3.30;99.90;;;;;;4980138;28;20142;-61
2024/03/25 04:53:04;;;;;;;5.53;2.42;;;3.30;99.90;;;;;;4974343;28;20190;-62
2024/03/25 04:55:30;;;;;;;5.78;2.13;;;3.30;99.90;;;;;;4973993;28;20562;-63
2024/03/25 04:57:56;;;;;;;3.60;2.20;;;3.30;99.90;;;;;;4978708;28;20053;-62
2024/03/25 05:00:22;;;;;;;2.83;2.10;;;3.40;99.90;;;;;;4976457;28;20054;-62
2024/03/25 05:02:47;;;;;;;4.10;1.95;;;3.40;99.90;;;;;;4980432;28;20066;-61
2024/03/25 05:05:13;;;;;;;4.97;2.28;;;3.50;99.90;;;;;;4976558;28;20061;-62
2024/03/25 05:07:39;;;;;;;6.30;2.17;;;3.50;99.90;;;;;;4977177;28;20065;-62
2024/03/25 05:10:05;;;;;;;4.18;2.20;;;3.60;99.90;;;;;;4971921;28;20054;-62
2024/03/25 05:12:31;;;;;;;5.68;2.20;;;3.50;99.90;;;;;;4978854;28;20050;-62
2024/03/25 05:14:57;;;;;;;5.20;2.30;;;3.50;99.90;;;;;;4972491;28;20097;-62
2024/03/25 05:17:23;;;;;;;6.63;2.60;;;3.50;99.90;;;;;;4979898;28;20100;-62
2024/03/25 05:19:49;;;;;;;6.00;2.38;;;3.60;99.90;;;;;;4971888;28;20054;-62
2024/03/25 05:22:14;;;;;;;5.13;2.13;;;3.60;99.90;;;;;;4972512;28;20106;-63
2024/03/25 05:24:40;;;;;;;4.18;2.20;;;3.60;99.90;;;;;;4973970;28;20049;-62
2024/03/25 05:27:06;;;;;;;5.10;2.45;;;3.60;99.90;;;;;;4983566;28;20069;-61
2024/03/25 05:29:32;;;;;;;3.50;2.33;;;3.60;99.90;;;;;;4976223;28;20050;-62
2024/03/25 05:31:59;;;;;;;6.35;2.72;;;3.60;99.90;;;;;;4976998;28;20043;-62
2024/03/25 05:34:26;;;;;;;5.45;2.35;;;3.50;99.90;;;;;;4974134;28;20054;-62
2024/03/25 05:36:52;;;;;;;6.90;2.75;;;3.60;99.90;;;;;;4974033;28;20054;-62
2024/03/25 05:39:18;;;;;;;6.82;2.55;;;3.50;99.90;;;;;;4971717;28;20108;-61
2024/03/25 05:41:44;;;;;;;4.95;2.42;;;3.50;99.90;;;;;;4977461;28;20045;-62
2024/03/25 05:44:10;;;;;;;5.38;2.85;;;3.50;99.90;;;;;;4980823;28;20056;-61
2024/03/25 05:46:36;;;;;;;6.50;2.50;;;3.50;99.90;;;;;;4976218;28;20526;-62
2024/03/25 05:49:05;;;;;;;6.15;2.58;;;3.50;99.90;;;;;;4976146;28;20097;-62
2024/03/25 05:51:33;;;;;;;4.32;1.95;;;3.50;99.90;;;;;;4976002;28;20067;-61
2024/03/25 05:53:59;;;;;;;6.63;2.22;;;3.50;99.90;;;;;;4978357;28;20061;-62
2024/03/25 05:56:30;;;;;;;4.97;2.40;;;3.50;99.90;;;;;;4976389;28;20066;-61
2024/03/25 05:58:59;;;;;;;6.25;2.88;;;3.50;99.90;;;;;;4976330;28;20636;-62
2024/03/25 06:01:26;;;;;;;5.35;2.25;;;3.60;99.90;;;;;;4972072;28;20046;-63
2024/03/25 06:03:52;;;;;;;5.85;2.20;;;3.60;99.90;;;;;;4978356;28;20046;-64
2024/03/25 06:06:18;;;;;;;6.55;2.10;;;3.70;99.90;;;;;;4958683;28;20058;-63
2024/03/25 06:08:44;;;;;;;7.13;2.40;;;3.80;99.90;;;;;;4975047;28;20187;-63
2024/03/25 06:11:10;;;;;;;4.32;2.42;;;3.80;99.90;;;;;;4977512;28;20056;-63
2024/03/25 06:13:35;;;;;;;7.40;2.00;;;3.90;99.90;;;;;;4976593;28;20050;-63
2024/03/25 06:16:01;;;;;;;5.93;2.20;;;3.90;99.90;;;;;;4980837;28;20128;-64
2024/03/25 06:18:27;;;;;;;4.15;2.20;;;4.00;99.90;;;;;;4980488;28;20518;-63
2024/03/25 06:20:53;;;;;;;6.65;2.00;;;4.10;99.90;;;;;;4983671;28;20322;-64
2024/03/25 06:23:26;;;;;;;6.10;2.30;;;4.10;99.90;;;;;;4981323;28;20050;-64
2024/03/25 06:25:53;;;;;;;3.45;2.25;;;4.10;99.90;;;;;;4981513;28;20511;-63
2024/03/25 06:28:19;;;;;;;5.53;2.63;;;4.20;99.90;;;;;;4980353;28;20443;-63
2024/03/25 06:36:17;;;;;;;3.75;1.98;;;4.50;99.90;;;;;;4994667;28;20050;-64
2024/03/25 06:38:44;;;;;;;5.82;2.25;;;4.50;99.90;;;;;;4977901;28;20050;-63
2024/03/25 06:41:10;;;;;;;5.10;2.03;;;4.60;99.90;;;;;;4981234;28;20053;-63
2024/03/25 06:43:39;;;;;;;5.70;2.10;;;4.60;99.90;;;;;;4983801;28;20118;-63
2024/03/25 06:46:06;;;;;;;4.28;2.10;;;4.70;99.90;;;;;;4979970;28;20113;-63
2024/03/25 06:48:32;;;;;;;5.88;2.15;;;4.70;99.90;;;;;;4977191;28;20046;-63
2024/03/25 06:50:59;;;;;;;4.63;2.20;;;4.80;99.90;;;;;;4982793;28;20451;-63
2024/03/25 06:54:07;;;;;;;10.20;1.98;;;4.90;99.90;;;;;;4981031;28;20104;-61
2024/03/25 06:56:33;;;;;;;5.88;2.35;;;5.00;99.90;;;;;;4976758;28;20046;-61
2024/03/25 06:58:59;;;;;;;7.22;2.00;;;5.00;99.90;;;;;;4987173;28;20062;-61
2024/03/25 07:01:24;;;;;;;5.47;2.17;;;5.10;99.90;;;;;;4978878;28;20064;-58
2024/03/25 07:03:51;;;;;;;6.80;2.78;;;5.20;99.90;;;;;;4988258;28;20461;-61
2024/03/25 07:06:17;;;;;;;4.35;2.25;;;5.30;99.90;;;;;;4978825;28;20054;-61
2024/03/25 07:08:43;;;;;;;7.60;2.20;;;5.30;99.90;;;;;;4978821;28;20051;-62
2024/03/25 07:11:08;;;;;;;5.20;2.10;;;5.40;99.90;;;;;;4983515;28;20049;-61
2024/03/25 07:13:34;;;;;;;7.85;2.63;;;5.40;99.90;;;;;;4981818;28;20055;-62
2024/03/25 07:16:00;;;;;;;6.28;2.13;;;5.50;99.90;;;;;;4980018;28;20062;-61
2024/03/25 07:18:25;;;;;;;5.18;2.10;;;5.50;99.90;;;;;;4980824;28;20057;-61
2024/03/25 07:20:51;;;;;;;8.40;3.05;;;5.70;99.90;;;;;;4982652;28;20066;-61
2024/03/25 07:23:17;;;;;;;7.82;3.38;;;5.80;99.90;;;;;;4976243;28;20065;-63
2024/03/25 07:25:44;;;;;;;5.57;3.67;;;5.90;99.90;;;;;;4983430;28;20054;-63
2024/03/25 07:28:10;;;;;;;7.72;3.33;;;5.90;99.90;;;;;;4978753;28;20046;-63
2024/03/25 07:30:35;;;;;;;9.70;3.92;;;6.00;99.90;;;;;;4977398;28;20050;-63
2024/03/25 07:33:01;;;;;;;4.95;2.95;;;6.00;99.90;;;;;;4981318;28;20077;-63
2024/03/25 07:35:27;;;;;;;7.55;2.92;;;6.10;99.90;;;;;;4973429;28;20053;-61
2024/03/25 07:37:53;;;;;;;2.97;2.50;;;6.10;99.90;;;;;;4980347;28;20049;-63
2024/03/25 07:40:19;;;;;;;6.72;2.58;;;6.20;99.90;;;;;;4970333;28;20076;-60
2024/03/25 07:42:45;;;;;;;7.18;2.17;;;6.20;99.90;;;;;;4974006;28;20050;-62
2024/03/25 07:45:11;;;;;;;3.72;2.25;;;6.20;99.90;;;;;;4978734;28;20495;-59
2024/03/25 07:47:37;;;;;;;6.88;2.58;;;6.30;99.90;;;;;;4966493;28;20051;-62
2024/03/25 07:50:03;;;;;;;5.13;2.30;;;6.30;99.90;;;;;;4974305;28;20050;-62
2024/03/25 07:52:29;;;;;;;7.45;2.65;;;6.30;99.90;;;;;;4974040;28;20514;-60
2024/03/25 07:54:55;;;;;;;5.18;2.30;;;6.40;99.90;;;;;;4981399;28;20042;-61
2024/03/25 07:57:21;;;;;;;4.75;2.42;;;6.40;99.90;;;;;;5001246;28;20057;-61
2024/03/25 07:59:47;;;;;;;6.35;3.03;;;6.40;99.90;;;;;;4981686;28;20083;-63
2024/03/25 08:02:13;;;;;;;7.07;2.70;;;6.50;99.90;;;;;;4983940;28;20072;-64
2024/03/25 08:04:39;;;;;;;7.75;3.63;;;6.50;99.90;;;;;;4974737;28;20054;-61
2024/03/25 08:07:05;;;;;;;7.72;2.70;;;6.50;99.90;;;;;;4979187;28;20065;-60
2024/03/25 08:09:31;;;;;;;5.78;2.40;;;6.60;99.90;;;;;;4974784;28;20042;-61
2024/03/25 08:11:57;;;;;;;8.95;2.78;;;6.60;99.90;;;;;;4968424;28;20073;-63
2024/03/25 08:14:23;;;;;;;6.10;2.75;;;6.70;99.90;;;;;;4979476;28;20781;-62
2024/03/25 08:16:48;;;;;;;7.38;2.53;;;6.70;99.90;;;;;;4979616;28;20196;-63
2024/03/25 08:19:14;;;;;;;10.60;2.60;;;6.80;99.90;;;;;;4978597;28;20526;-62
2024/03/25 08:21:40;;;;;;;6.72;2.92;;;6.90;99.90;;;;;;4983731;28;20058;-62
2024/03/25 08:24:06;;;;;;;6.78;2.20;;;6.90;99.90;;;;;;4977805;28;20076;-61
2024/03/25 08:26:32;;;;;;;5.93;2.85;;;7.00;99.90;;;;;;4985340;28;20132;-63
2024/03/25 08:28:58;;;;;;;5.13;2.85;;;7.00;99.90;;;;;;4978950;28;20097;-62
2024/03/25 08:31:24;;;;;;;6.53;2.60;;;7.10;99.90;;;;;;4972627;28;20484;-63
2024/03/25 08:33:50;;;;;;;5.15;2.42;;;7.10;99.90;;;;;;4973337;28;20051;-64
2024/03/25 08:36:16;;;;;;;6.03;2.60;;;7.20;99.90;;;;;;4981201;28;20054;-64
2024/03/25 08:38:42;;;;;;;5.57;2.20;;;7.20;99.90;;;;;;4995116;23;20054;-62
2024/03/25 08:41:07;;;;;;;4.07;2.40;;;7.30;99.90;;;;;;4985342;28;20419;-61
2024/03/25 08:43:33;;;;;;;5.78;2.42;;;7.30;99.90;;;;;;4984404;28;20644;-64
2024/03/25 08:45:59;;;;;;;3.60;2.30;;;7.40;99.90;;;;;;4983336;28;20053;-64
2024/03/25 08:48:25;;;;;;;8.60;3.63;;;7.60;99.90;;;;;;4987415;28;20105;-64
2024/03/25 08:50:50;;;;;;;9.45;3.08;;;7.70;99.90;;;;;;4972804;28;20046;-61
2024/03/25 08:53:16;;;;;;;7.60;2.50;;;7.90;99.90;;;;;;4990652;28;20049;-63
2024/03/25 08:55:45;;;;;;;7.65;2.35;;;8.10;99.90;;;;;;4986961;28;20093;-63
2024/03/25 08:58:15;;;;;;;4.67;2.03;;;8.30;99.90;;;;;;4986498;28;20069;-64
2024/03/25 09:00:42;;;;;;;4.90;2.50;;;8.40;99.90;;;;;;4982295;28;20057;-64
2024/03/25 09:03:08;;;;;;;8.45;2.95;;;8.40;99.90;;;;;;4970559;28;20047;-64
2024/03/25 09:05:34;;;;;;;5.32;2.15;;;8.60;99.90;;;;;;4988837;28;20062;-64
2024/03/25 09:08:01;;;;;;;6.07;2.40;;;8.80;99.90;;;;;;4982477;28;20415;-64
2024/03/25 09:13:13;;;;;;;7.50;2.20;;;9.00;99.90;;;;;;4984139;28;20058;-64
2024/03/25 09:15:38;;;;;;;7.03;2.22;;;9.00;99.90;;;;;;4985322;28;20049;-66
2024/03/25 09:18:04;;;;;;;3.63;2.03;;;9.00;99.90;;;;;;4987323;28;20668;-64
2024/03/25 09:20:30;;;;;;;5.90;2.38;;;9.00;99.90;;;;;;4970026;28;20525;-65
2024/03/25 09:22:56;;;;;;;5.07;2.42;;;9.00;99.90;;;;;;4986078;28;20069;-66
2024/03/25 09:25:23;;;;;;;6.60;2.38;;;9.10;99.90;;;;;;4985679;28;20602;-64
2024/03/25 09:27:50;;;;;;;7.70;2.55;;;9.10;99.90;;;;;;4986643;28;20053;-66
2024/03/25 09:30:16;;;;;;;5.47;2.10;;;9.10;99.90;;;;;;4989453;28;20054;-65
2024/03/25 09:32:42;;;;;;;4.85;2.03;;;9.10;99.90;;;;;;4985368;28;20050;-66
2024/03/25 09:35:09;;;;;;;8.35;2.58;;;9.10;99.90;;;;;;4990157;28;20111;-65
2024/03/25 09:37:35;;;;;;;6.00;2.58;;;9.00;99.90;;;;;;4984022;28;20061;-64
2024/03/25 09:40:01;;;;;;;4.63;2.17;;;8.90;99.90;;;;;;4982193;28;20054;-64
2024/03/25 09:42:48;;;;;;;4.15;2.08;;;8.90;99.90;;;;;;4986179;28;20050;-64
2024/03/25 09:45:16;;;;;;;2.65;1.73;;;8.90;99.90;;;;;;4980092;28;20465;-63
2024/03/25 09:47:47;;;;;;;4.88;1.73;;;9.00;99.90;;;;;;4988472;28;20062;-63
2024/03/25 09:50:19;;;;;;;7.93;2.10;;;9.00;99.90;;;;;;4987193;28;20499;-64
2024/03/25 09:52:51;;;;;;;3.95;1.90;;;9.00;99.90;;;;;;4982786;28;20377;-64
2024/03/25 09:55:17;;;;;;;6.13;1.80;;;9.00;99.90;;;;;;4986789;28;20045;-63
2024/03/25 09:57:44;;;;;;;3.28;1.85;;;8.90;99.90;;;;;;4982862;28;20088;-64
2024/03/25 10:00:11;;;;;;;4.35;1.90;;;8.90;99.90;;;;;;4990517;28;20054;-65
2024/03/25 10:02:39;;;;;;;5.80;2.03;;;8.90;99.90;;;;;;4986159;28;20046;-64
2024/03/25 10:05:06;;;;;;;5.10;1.95;;;8.90;99.90;;;;;;4988386;28;20073;-65
2024/03/25 10:07:32;;;;;;;5.68;2.10;;;8.90;99.90;;;;;;4987132;28;20447;-64
2024/03/25 10:09:58;;;;;;;4.63;1.90;;;8.90;99.90;;;;;;4985532;28;20446;-65
2024/03/25 10:12:24;;;;;;;3.70;2.08;;;9.00;99.90;;;;;;4982792;28;20050;-64
2024/03/25 10:14:50;;;;;;;6.05;2.20;;;9.10;99.90;;;;;;4982205;28;20057;-64
2024/03/25 10:17:16;;;;;;;4.93;2.00;;;9.10;99.90;;;;;;4989491;28;20045;-64
2024/03/25 10:19:42;;;;;;;5.13;1.63;;;9.10;99.90;;;;;;4965898;28;20050;-64
2024/03/25 10:22:09;;;;;;;3.25;1.50;;;9.20;99.90;;;;;;4985016;28;20054;-63
2024/03/25 10:24:39;;;;;;;7.22;2.00;;;9.30;99.90;;;;;;4988610;28;20462;-64
2024/03/25 10:27:09;;;;;;;5.85;1.50;;;9.30;99.90;;;;;;4988693;28;20066;-64
2024/03/25 10:29:35;;;;;;;4.03;2.10;;;9.20;99.90;;;;;;4985794;28;20487;-64
2024/03/25 10:32:02;;;;;;;2.78;1.60;;;9.20;99.90;;;;;;4986085;28;20061;-66
2024/03/25 10:34:28;;;;;;;2.92;1.65;;;9.30;99.90;;;;;;4987674;28;20180;-64
2024/03/25 10:36:58;;;;;;;6.65;2.22;;;9.40;99.90;;;;;;4981210;28;20094;-63
2024/03/25 10:39:30;;;;;;;8.87;1.90;;;9.50;99.90;;;;;;4983235;28;20137;-63
2024/03/25 10:41:57;;;;;;;6.97;1.67;;;9.40;99.90;;;;;;4981027;28;20057;-63
2024/03/25 10:44:24;;;;;;;3.45;2.00;;;9.40;99.90;;;;;;4987088;28;20069;-60
2024/03/25 10:46:58;;;;;;;5.70;1.90;;;9.30;99.90;;;;;;4985628;28;20053;-62
2024/03/25 10:49:34;;;;;;;6.53;2.17;;;9.30;99.90;;;;;;4985296;28;20133;-63
2024/03/25 10:52:02;;;;;;;5.63;2.00;;;9.30;99.90;;;;;;4983713;28;20439;-62
2024/03/25 10:54:30;;;;;;;6.18;2.17;;;9.40;99.90;;;;;;4986405;28;20074;-63
2024/03/25 10:56:58;;;;;;;3.92;1.98;;;9.50;99.90;;;;;;4983180;28;20065;-62
2024/03/25 10:59:26;;;;;;;4.53;1.95;;;9.60;99.90;;;;;;4987871;28;20084;-62
2024/03/25 11:01:53;;;;;;;3.10;1.75;;;9.60;99.90;;;;;;4985574;28;20058;-62
2024/03/25 11:04:20;;;;;;;7.20;1.83;;;9.50;99.90;;;;;;4991365;28;20081;-65
2024/03/25 11:06:46;;;;;;;4.45;1.65;;;9.40;99.90;;;;;;4974354;28;20506;-63
2024/03/25 11:09:28;;;;;;;2.03;1.42;;;9.50;99.90;;;;;;4988111;28;20135;-64
2024/03/25 11:11:54;;;;;;;4.80;1.70;;;9.60;99.90;;;;;;4987206;28;20049;-62
2024/03/25 11:14:19;;;;;;;5.78;1.70;;;9.60;99.90;;;;;;4989316;28;20053;-63
2024/03/25 11:16:52;;;;;;;4.40;1.98;;;9.70;99.90;;;;;;4984799;28;20046;-62
2024/03/25 11:19:19;;;;;;;3.38;1.48;;;9.70;99.90;;;;;;4990035;28;20062;-64
2024/03/25 11:21:45;;;;;;;3.22;1.85;;;9.70;99.90;;;;;;4989983;28;20612;-64
2024/03/25 11:24:10;;;;;;;4.93;1.80;;;9.80;99.90;;;;;;4992570;28;20050;-63
2024/03/25 11:26:41;;;;;;;6.18;1.83;;;9.80;99.90;;;;;;4987340;28;20177;-64
2024/03/25 11:29:36;;;;;;;3.28;1.40;;;9.80;99.90;;;;;;4989684;28;20069;-64
2024/03/25 11:32:04;;;;;;;6.85;1.90;;;9.90;99.90;;;;;;4987199;28;20065;-64
2024/03/25 11:34:30;;;;;;;4.32;1.63;;;10.00;99.90;;;;;;4991615;28;20139;-64
2024/03/25 11:36:57;;;;;;;4.85;1.50;;;10.00;99.90;;;;;;4985937;28;20451;-63
2024/03/25 11:39:26;;;;;;;4.93;1.50;;;10.10;99.90;;;;;;4992978;28;20510;-63
2024/03/25 11:41:52;;;;;;;4.50;1.92;;;10.00;99.90;;;;;;4981776;28;20054;-64
2024/03/25 11:44:18;;;;;;;3.42;1.50;;;10.10;99.90;;;;;;4986004;28;20072;-63
2024/03/25 11:46:45;;;;;;;2.35;1.38;;;10.20;99.90;;;;;;4990237;28;20053;-63
2024/03/25 11:49:17;;;;;;;6.00;1.88;;;10.10;99.90;;;;;;4987107;28;20054;-63
2024/03/25 11:51:46;;;;;;;3.47;1.50;;;10.10;99.90;;;;;;4985747;28;20046;-63
2024/03/25 11:54:12;;;;;;;2.95;1.25;;;10.10;99.90;;;;;;4986772;28;20957;-63
2024/03/25 11:56:38;;;;;;;3.08;1.60;;;10.10;99.90;;;;;;4985391;28;20050;-59
2024/03/25 11:59:05;;;;;;;6.30;2.05;;;10.20;99.90;;;;;;4986043;28;20062;-58
2024/03/25 12:01:31;;;;;;;4.70;1.70;;;10.20;99.90;;;;;;4991263;28;20058;-59
2024/03/25 12:03:57;;;;;;;8.77;1.77;;;10.30;99.90;;;;;;4988201;28;20054;-59
2024/03/25 12:06:23;;;;;;;4.63;1.83;;;10.30;99.90;;;;;;4987112;28;20447;-59
2024/03/25 12:11:33;;;;;;;3.72;1.80;;;10.50;99.90;;;;;;4983479;28;20534;-58
2024/03/25 12:14:00;;;;;;;3.50;1.23;;;10.50;99.90;;;;;;4986645;28;20104;-63
2024/03/25 12:16:26;;;;;;;3.05;1.48;;;10.50;99.90;;;;;;4986045;28;20050;-65
2024/03/25 12:18:55;;;;;;;3.95;1.50;;;10.50;99.90;;;;;;4987562;28;20042;-66
2024/03/25 12:21:21;;;;;;;3.33;1.40;;;10.60;99.90;;;;;;4983786;28;20050;-64
2024/03/25 12:23:47;;;;;;;4.00;1.95;;;10.60;99.90;;;;;;4985439;28;20265;-64
2024/03/25 12:26:14;;;;;;;3.88;1.85;;;10.70;99.90;;;;;;4984569;28;20062;-61
2024/03/25 12:28:40;;;;;;;4.68;1.77;;;10.80;99.90;;;;;;4984631;28;20057;-65
2024/03/25 12:31:10;;;;;;;3.17;1.52;;;10.90;99.90;;;;;;4982773;28;20057;-63
2024/03/25 12:33:45;;;;;;;;;;;10.80;99.90;;;;;;4984948;28;20092;-63
2024/03/25 12:36:14;;;;;;;3.83;1.40;;;10.80;99.90;;;;;;4988979;28;20429;-63
2024/03/25 12:38:39;;;;;;;5.38;1.65;;;10.90;99.90;;;;;;4985989;28;20061;-62
2024/03/25 12:41:11;;;;;;;3.65;1.40;;;11.00;99.90;;;;;;4985491;28;20140;-57
2024/03/25 12:43:42;;;;;;;2.40;1.48;;;11.00;99.90;;;;;;4986423;28;20056;-60
2024/03/25 12:46:10;;;;;;;4.60;1.63;;;11.00;99.90;;;;;;4983522;28;20046;-59
2024/03/25 12:48:37;;;;;;;3.58;1.40;;;11.10;99.90;;;;;;4985687;28;20050;-62
2024/03/25 12:51:03;;;;;;;3.72;1.65;;;11.20;99.90;;;;;;4965020;28;20498;-60
2024/03/25 12:53:29;;;;;;;5.78;1.35;;;11.10;99.90;;;;;;4988027;28;20487;-61
2024/03/25 12:55:54;;;;;;;2.65;1.60;;;11.10;99.90;;;;;;4986029;28;20057;-61
2024/03/25 12:58:20;;;;;;;3.05;1.60;;;11.30;99.90;;;;;;4988492;28;20086;-62
2024/03/25 13:00:46;;;;;;;2.97;1.70;;;11.30;99.90;;;;;;4986949;28;20046;-59
2024/03/25 13:03:12;;;;;;;2.42;1.50;;;11.20;99.90;;;;;;4968049;28;20058;-58